Time;durP1;ratioP1;P1;durP2;ratioP2;P2;SDS_P1;SDS_P2;PMS_P1;PMS_P2;Temp;Humidity;BMP_temperature;BMP_pressure;BME280_temperature;BME280_humidity;BME280_pressure;Samples;Min_cycle;Max_cycle;Signal;HPM_P1;HPM_P2
2021/11/13 00:01:26;;;;;;;2.85;1.10;;;;;;;6.56;100.00;99599.69;4963900;28;20415;-66
2021/11/13 00:04:12;;;;;;;3.70;1.08;;;;;;;6.64;100.00;99597.88;4936436;28;20074;-66
2021/11/13 00:06:57;;;;;;;1.35;1.00;;;;;;;6.59;100.00;99591.75;4951484;28;20097;-65
2021/11/13 00:09:42;;;;;;;1.23;0.77;;;;;;;6.52;100.00;99606.72;4967139;28;20125;-66
2021/11/13 00:12:27;;;;;;;1.52;0.90;;;;;;;6.59;100.00;99613.69;4935566;29;20066;-65
2021/11/13 00:15:15;;;;;;;2.03;0.85;;;;;;;6.67;100.00;99611.88;4967152;28;20089;-64
2021/11/13 00:18:01;;;;;;;1.02;0.93;;;;;;;6.68;100.00;99608.34;4950767;28;20198;-66
2021/11/13 00:20:47;;;;;;;1.25;0.95;;;;;;;6.64;100.00;99626.84;4950774;28;20058;-67
2021/11/13 00:23:33;;;;;;;3.03;1.20;;;;;;;6.64;100.00;99632.13;4962278;28;20054;-67
2021/11/13 00:26:17;;;;;;;2.97;1.17;;;;;;;6.68;100.00;99625.94;4952422;28;20041;-66
2021/11/13 00:29:07;;;;;;;1.30;1.02;;;;;;;6.71;100.00;99631.16;4960403;28;20411;-62
2021/11/13 00:31:54;;;;;;;1.13;0.90;;;;;;;6.60;100.00;99639.16;4947557;28;20101;-63
2021/11/13 00:34:43;;;;;;;1.40;1.13;;;;;;;6.67;100.00;99653.16;4956749;28;20061;-64
2021/11/13 00:37:28;;;;;;;1.27;0.98;;;;;;;6.64;100.00;99640.88;4963434;28;20526;-65
2021/11/13 00:40:16;;;;;;;2.28;1.00;;;;;;;6.67;100.00;99648.78;4950251;28;20073;-69
2021/11/13 00:43:00;;;;;;;1.83;1.10;;;;;;;6.64;100.00;99664.59;4946046;29;20054;-63
2021/11/13 00:45:46;;;;;;;1.73;1.05;;;;;;;6.66;100.00;99662.84;4964170;28;20050;-68
2021/11/13 00:48:32;;;;;;;1.20;0.90;;;;;;;6.67;100.00;99675.13;4962003;28;20125;-65
2021/11/13 00:51:17;;;;;;;1.00;0.85;;;;;;;6.62;100.00;99669.00;4959787;28;20768;-65
2021/11/13 00:54:04;;;;;;;2.45;0.90;;;;;;;6.64;100.00;99685.66;4926371;28;20057;-65
2021/11/13 00:56:49;;;;;;;1.10;0.98;;;;;;;6.71;100.00;99671.56;4939859;28;20581;-65
2021/11/13 00:59:36;;;;;;;2.17;1.02;;;;;;;6.76;100.00;99692.63;4967756;28;20530;-64
2021/11/13 01:02:21;;;;;;;1.23;0.82;;;;;;;6.71;100.00;99665.41;4966891;28;20086;-63
2021/11/13 01:05:08;;;;;;;1.65;1.00;;;;;;;6.59;100.00;99686.56;4957287;28;20061;-65
2021/11/13 01:07:52;;;;;;;1.77;0.90;;;;;;;6.62;100.00;99700.63;4965185;28;20057;-67
2021/11/13 01:10:38;;;;;;;1.10;0.88;;;;;;;6.61;100.00;99700.63;4948519;28;20594;-65
2021/11/13 01:13:23;;;;;;;1.00;0.80;;;;;;;6.65;100.00;99697.94;4955515;28;20601;-63
2021/11/13 01:16:11;;;;;;;0.70;0.70;;;;;;;6.60;100.00;99696.25;4951262;28;20093;-64
2021/11/13 01:18:56;;;;;;;0.93;0.90;;;;;;;6.58;100.00;99708.53;4954804;28;20054;-63
2021/11/13 01:21:41;;;;;;;1.75;0.90;;;;;;;6.61;100.00;99724.34;4959125;28;20101;-64
2021/11/13 01:24:28;;;;;;;1.83;0.90;;;;;;;6.73;100.00;99708.44;4941472;28;20494;-66
2021/11/13 01:27:12;;;;;;;1.20;0.80;;;;;;;6.67;100.00;99705.84;4952379;28;20049;-66
2021/11/13 01:29:57;;;;;;;1.73;0.70;;;;;;;6.72;100.00;99722.53;4953758;28;20476;-65
2021/11/13 01:32:45;;;;;;;1.00;0.90;;;;;;;6.77;100.00;99728.63;4947127;28;20125;-62
2021/11/13 01:35:30;;;;;;;2.15;0.75;;;;;;;6.71;100.00;99721.63;4962115;28;20407;-68
2021/11/13 01:38:16;;;;;;;5.28;0.90;;;;;;;6.75;100.00;99736.53;4958983;28;20061;-64
2021/11/13 01:41:01;;;;;;;0.90;0.70;;;;;;;6.66;100.00;99740.97;4966917;28;20909;-66
2021/11/13 01:43:46;;;;;;;1.45;0.70;;;;;;;6.68;100.00;99745.34;4966596;28;20049;-66
2021/11/13 01:46:31;;;;;;;1.65;0.77;;;;;;;6.60;100.00;99759.47;4964723;28;20128;-63
2021/11/13 01:49:16;;;;;;;1.13;0.70;;;;;;;6.59;100.00;99748.03;4962241;28;20554;-67
2021/11/13 01:52:06;;;;;;;2.15;0.98;;;;;;;6.63;100.00;99765.59;4959020;28;20061;-63
2021/11/13 01:54:51;;;;;;;2.03;0.90;;;;;;;6.64;100.00;99771.75;4966823;28;20101;-63
2021/11/13 01:57:48;;;;;;;2.15;0.70;;;;;;;6.74;100.00;99778.69;4961044;28;20090;-63
2021/11/13 02:00:56;;;;;;;1.52;0.70;;;;;;;6.67;100.00;99780.50;4950094;28;20101;-64
2021/11/13 02:03:40;;;;;;;0.70;0.70;;;;;;;6.67;100.00;99791.03;4957967;28;20066;-64
2021/11/13 02:06:26;;;;;;;1.42;0.77;;;;;;;6.61;100.00;99788.41;4951635;28;20061;-64
2021/11/13 02:09:11;;;;;;;1.63;0.80;;;;;;;6.63;100.00;99791.94;4948120;28;20138;-64
2021/11/13 02:11:56;;;;;;;1.40;0.90;;;;;;;6.59;100.00;99800.72;4952109;28;20403;-64
2021/11/13 02:14:41;;;;;;;1.15;0.90;;;;;;;6.51;100.00;99797.25;4957831;28;20578;-64
2021/11/13 02:17:25;;;;;;;2.25;0.88;;;;;;;6.66;100.00;99813.00;4947398;28;20054;-64
2021/11/13 02:20:28;;;;;;;1.33;0.70;;;;;;;6.72;100.00;99823.50;4968283;28;20593;-63
2021/11/13 02:23:16;;;;;;;1.20;0.70;;;;;;;6.60;100.00;99818.28;4950213;28;20058;-65
2021/11/13 02:26:02;;;;;;;0.70;0.60;;;;;;;6.53;100.00;99824.44;4956765;28;20102;-67
2021/11/13 02:28:47;;;;;;;0.85;0.60;;;;;;;6.53;100.00;99834.97;4958623;28;20045;-66
2021/11/13 02:31:38;;;;;;;0.70;0.70;;;;;;;6.59;100.00;99828.81;4962485;28;20066;-67
2021/11/13 02:34:24;;;;;;;0.98;0.77;;;;;;;6.53;100.00;99818.31;4957164;28;20077;-65
2021/11/13 02:37:11;;;;;;;1.67;0.70;;;;;;;6.53;100.00;99848.13;4950731;28;20053;-67
2021/11/13 02:39:56;;;;;;;1.10;0.70;;;;;;;6.51;100.00;99856.94;4960864;28;20113;-66
2021/11/13 02:42:42;;;;;;;0.68;0.68;;;;;;;6.51;100.00;99842.03;4964389;28;20143;-65
2021/11/13 02:45:27;;;;;;;0.77;0.60;;;;;;;6.54;100.00;99868.34;4943239;29;20143;-68
2021/11/13 02:48:13;;;;;;;1.33;0.60;;;;;;;6.46;100.00;99861.34;4962074;28;20101;-67
2021/11/13 02:51:02;;;;;;;0.40;0.40;;;;;;;6.32;100.00;99866.63;4963078;28;20066;-64
2021/11/13 02:53:52;;;;;;;0.75;0.47;;;;;;;6.39;100.00;99878.03;4950191;28;20045;-69
2021/11/13 02:56:37;;;;;;;1.08;0.68;;;;;;;6.45;100.00;99889.44;4933963;28;20050;-66
2021/11/13 02:59:21;;;;;;;0.65;0.50;;;;;;;6.27;100.00;99889.47;4955589;28;20058;-63
2021/11/13 03:02:05;;;;;;;1.05;0.50;;;;;;;6.28;100.00;99906.13;4963942;28;20054;-64
2021/11/13 03:04:50;;;;;;;1.00;0.57;;;;;;;6.17;100.00;99903.50;4950827;28;20783;-66
2021/11/13 03:07:34;;;;;;;0.85;0.50;;;;;;;6.30;100.00;99914.91;4961829;28;20562;-64
2021/11/13 03:10:21;;;;;;;0.95;0.60;;;;;;;6.26;100.00;99916.69;4953080;28;20046;-65
2021/11/13 03:13:05;;;;;;;1.00;0.90;;;;;;;6.29;100.00;99914.03;4956924;28;20112;-67
2021/11/13 03:15:51;;;;;;;2.50;0.80;;;;;;;6.27;100.00;99918.44;4956414;28;20527;-65
2021/11/13 03:18:36;;;;;;;1.10;0.73;;;;;;;6.25;100.00;99920.16;4964189;28;20835;-62
2021/11/13 03:21:21;;;;;;;0.60;0.60;;;;;;;6.28;100.00;99920.19;4965903;28;20105;-64
2021/11/13 03:24:06;;;;;;;0.75;0.60;;;;;;;6.32;100.00;99931.56;4966156;28;20212;-62
2021/11/13 03:26:51;;;;;;;1.42;0.80;;;;;;;6.39;100.00;99935.97;4956161;28;20201;-63
2021/11/13 03:29:41;;;;;;;0.90;0.70;;;;;;;6.52;100.00;99933.31;4953435;28;20062;-63
2021/11/13 03:32:25;;;;;;;0.82;0.80;;;;;;;6.42;100.00;99941.25;4937163;28;20095;-63
2021/11/13 03:35:13;;;;;;;0.63;0.60;;;;;;;6.41;100.00;99944.75;4953505;28;20534;-64
2021/11/13 03:38:08;;;;;;;1.48;0.80;;;;;;;6.36;100.00;99949.13;4955934;28;20740;-64
2021/11/13 03:40:53;;;;;;;1.60;1.10;;;;;;;6.31;100.00;99959.69;4947798;28;20114;-65
2021/11/13 03:43:40;;;;;;;1.10;0.85;;;;;;;6.46;100.00;99966.69;4961880;28;20379;-63
2021/11/13 03:46:25;;;;;;;3.13;1.00;;;;;;;6.35;100.00;99968.44;4949025;28;20098;-63
2021/11/13 03:49:09;;;;;;;2.15;0.80;;;;;;;6.30;100.00;99959.69;4960591;28;20057;-64
2021/11/13 03:51:55;;;;;;;1.90;0.93;;;;;;;6.25;100.00;99969.34;4952317;28;20065;-66
2021/11/13 03:54:39;;;;;;;2.00;1.08;;;;;;;6.30;100.00;99978.09;4966599;28;20577;-64
2021/11/13 03:57:24;;;;;;;0.90;0.90;;;;;;;6.28;100.00;99978.09;4950809;28;20475;-63
2021/11/13 04:00:11;;;;;;;2.00;1.00;;;;;;;6.23;100.00;99985.13;4965031;28;20144;-65
2021/11/13 04:03:02;;;;;;;2.05;1.20;;;;;;;6.28;100.00;99987.75;4951854;28;20143;-67
2021/11/13 04:05:47;;;;;;;1.75;0.90;;;;;;;6.32;100.00;99992.13;4964262;28;20073;-65
2021/11/13 04:08:32;;;;;;;;;;;;;;;6.32;100.00;99992.13;4969950;28;20054;-64
2021/11/13 04:11:16;;;;;;;1.65;1.10;;;;;;;6.30;100.00;99993.91;4969790;28;19964;-68
2021/11/13 04:14:01;;;;;;;1.50;1.08;;;;;;;6.31;100.00;100000.91;4967246;28;20145;-67
2021/11/13 04:16:46;;;;;;;1.45;0.90;;;;;;;6.40;100.00;100014.97;4942612;28;20419;-68
2021/11/13 04:19:31;;;;;;;1.42;0.77;;;;;;;6.24;100.00;100026.38;4967082;28;20074;-67
2021/11/13 04:22:16;;;;;;;1.50;1.05;;;;;;;6.25;100.00;100025.50;4962079;28;20058;-67
2021/11/13 04:25:00;;;;;;;3.03;0.80;;;;;;;6.34;100.00;100036.06;4955568;28;20865;-66
2021/11/13 04:27:47;;;;;;;3.15;0.90;;;;;;;6.30;100.00;100039.56;4952892;28;20088;-65
2021/11/13 04:30:32;;;;;;;1.00;0.70;;;;;;;6.24;100.00;100042.16;4951141;28;20160;-67
2021/11/13 04:33:17;;;;;;;1.85;0.70;;;;;;;6.18;100.00;100044.81;4963050;28;20202;-70
2021/11/13 04:38:50;;;;;;;1.52;0.95;;;;;;;6.15;100.00;100055.31;4966111;28;20349;-64
2021/11/13 04:41:38;;;;;;;1.23;1.00;;;;;;;6.15;100.00;100065.84;4953520;28;20526;-64
2021/11/13 04:44:22;;;;;;;1.42;0.70;;;;;;;6.21;100.00;100071.13;4954375;28;20053;-64
2021/11/13 04:47:08;;;;;;;1.55;1.00;;;;;;;6.24;100.00;100073.75;4952936;28;20054;-67
2021/11/13 04:49:53;;;;;;;5.30;1.15;;;;;;;6.25;100.00;100080.78;4968884;28;20050;-68
2021/11/13 04:52:37;;;;;;;6.32;0.90;;;;;;;6.23;100.00;100069.38;4939656;28;20217;-66
2021/11/13 04:55:22;;;;;;;1.05;0.93;;;;;;;6.20;100.00;100085.16;4957732;28;20122;-64
2021/11/13 04:58:11;;;;;;;1.23;0.90;;;;;;;6.21;100.00;100079.00;4950807;28;20058;-64
2021/11/13 05:00:56;;;;;;;1.20;1.05;;;;;;;6.34;100.00;100093.09;4961941;28;20049;-63
2021/11/13 05:03:41;;;;;;;1.67;1.10;;;;;;;6.27;100.00;100093.94;4963232;28;20480;-64
2021/11/13 05:06:28;;;;;;;1.35;1.20;;;;;;;6.38;100.00;100108.03;4965335;28;20075;-71
2021/11/13 05:09:13;;;;;;;2.97;1.20;;;;;;;6.24;100.00;100105.34;4949806;28;20058;-69
2021/11/13 05:11:58;;;;;;;2.25;1.05;;;;;;;6.23;100.00;100115.88;4965185;28;20144;-70
2021/11/13 05:14:42;;;;;;;2.35;1.33;;;;;;;6.32;100.00;100116.78;4940116;28;20190;-64
2021/11/13 05:17:27;;;;;;;1.40;1.30;;;;;;;6.38;100.00;100121.19;4964340;28;20569;-65
2021/11/13 05:20:16;;;;;;;2.83;2.20;;;;;;;6.33;100.00;100123.81;4956836;28;20368;-66
2021/11/13 05:23:01;;;;;;;3.50;2.17;;;;;;;6.36;100.00;100130.84;4959195;28;20061;-66
2021/11/13 05:25:46;;;;;;;3.67;2.00;;;;;;;6.52;100.00;100138.78;4947487;28;20054;-66
2021/11/13 05:28:30;;;;;;;2.17;1.98;;;;;;;6.42;100.00;100138.75;4947770;28;20526;-66
2021/11/13 05:31:15;;;;;;;2.25;1.90;;;;;;;6.52;100.00;100159.84;4964890;28;20227;-63
2021/11/13 05:33:59;;;;;;;5.27;1.53;;;;;;;6.51;100.00;100146.69;4968583;28;20109;-63
2021/11/13 05:36:45;;;;;;;3.43;1.50;;;;;;;6.50;100.00;100160.72;4953456;28;20098;-63
2021/11/13 05:39:29;;;;;;;3.15;1.40;;;;;;;6.53;100.00;100177.41;4959920;28;20153;-71
2021/11/13 05:42:15;;;;;;;6.28;1.92;;;;;;;6.56;100.00;100177.44;4946593;29;20051;-65
2021/11/13 05:45:01;;;;;;;4.60;1.50;;;;;;;6.36;100.00;100189.66;4960196;28;20078;-64
2021/11/13 05:47:49;;;;;;;4.47;1.65;;;;;;;6.46;100.00;100191.47;4955149;28;20166;-65
2021/11/13 05:50:34;;;;;;;5.32;1.50;;;;;;;6.57;100.00;100191.50;4968755;28;20050;-65
2021/11/13 05:53:19;;;;;;;4.95;1.50;;;;;;;6.46;100.00;100186.19;4961228;28;20058;-66
2021/11/13 05:56:04;;;;;;;1.98;1.30;;;;;;;6.40;100.00;100193.16;4951703;28;20053;-70
2021/11/13 05:58:48;;;;;;;2.78;1.60;;;;;;;6.50;100.00;100209.03;4945057;28;20062;-70
2021/11/13 06:01:33;;;;;;;1.95;1.50;;;;;;;6.47;100.00;100203.75;4955379;28;20049;-67
2021/11/13 06:04:18;;;;;;;4.22;1.80;;;;;;;6.37;100.00;100203.72;4952080;28;20490;-71
2021/11/13 06:07:03;;;;;;;2.58;1.90;;;;;;;6.29;100.00;100208.94;4960022;28;20122;-67
2021/11/13 06:09:47;;;;;;;2.05;1.50;;;;;;;6.29;100.00;100213.34;4949426;28;20077;-68
2021/11/13 06:12:32;;;;;;;5.15;1.80;;;;;;;6.35;100.00;100223.88;4965168;28;20061;-68
2021/11/13 06:15:17;;;;;;;4.45;1.65;;;;;;;6.39;100.00;100229.19;4967938;28;20113;-70
2021/11/13 06:18:02;;;;;;;2.53;1.70;;;;;;;6.43;100.00;100230.06;4962741;28;20149;-73
2021/11/13 06:20:47;;;;;;;3.13;1.50;;;;;;;6.58;100.00;100241.56;4968428;28;20529;-69
2021/11/13 06:23:32;;;;;;;4.88;1.70;;;;;;;6.46;100.00;100248.53;4962193;28;20082;-69
2021/11/13 06:26:18;;;;;;;4.55;1.50;;;;;;;6.48;100.00;100252.91;4937997;28;20061;-68
2021/11/13 06:29:04;;;;;;;1.85;1.65;;;;;;;6.46;100.00;100259.94;4939670;29;20289;-68
2021/11/13 06:31:49;;;;;;;2.38;1.63;;;;;;;6.32;100.00;100255.47;4935477;29;20062;-67
2021/11/13 06:34:33;;;;;;;2.95;1.88;;;;;;;6.39;100.00;100255.53;4961498;28;20069;-67
2021/11/13 06:37:18;;;;;;;3.25;1.70;;;;;;;6.51;100.00;100263.47;4950851;28;20060;-72
2021/11/13 06:40:05;;;;;;;2.30;1.60;;;;;;;6.45;100.00;100244.13;4966919;28;20097;-68
2021/11/13 06:42:50;;;;;;;4.15;1.52;;;;;;;6.42;100.00;100260.81;4966174;28;20098;-64
2021/11/13 06:45:35;;;;;;;3.83;1.55;;;;;;;6.46;100.00;100267.84;4939689;28;20058;-66
2021/11/13 06:48:21;;;;;;;2.17;1.60;;;;;;;6.51;100.00;100278.38;4952674;28;20096;-66
2021/11/13 06:51:05;;;;;;;2.80;1.33;;;;;;;6.47;100.00;100266.97;4976152;28;20057;-66
2021/11/13 06:53:50;;;;;;;5.63;2.05;;;;;;;6.49;100.00;100288.91;4961528;28;20093;-67
2021/11/13 06:56:34;;;;;;;1.60;1.20;;;;;;;6.53;100.00;100295.09;4967885;28;20077;-72
2021/11/13 06:59:20;;;;;;;1.55;1.30;;;;;;;6.51;100.00;100303.00;4949900;28;20050;-69
2021/11/13 07:02:05;;;;;;;2.25;1.27;;;;;;;6.55;100.00;100304.75;4937340;29;20550;-69
2021/11/13 07:04:52;;;;;;;2.33;1.60;;;;;;;6.39;100.00;100297.66;4955900;28;20145;-68
2021/11/13 07:07:38;;;;;;;5.60;1.40;;;;;;;6.51;100.00;100312.63;4960819;28;20395;-67
2021/11/13 07:10:25;;;;;;;2.78;1.27;;;;;;;6.43;100.00;100311.72;4958990;28;20586;-70
2021/11/13 07:13:10;;;;;;;4.20;1.25;;;;;;;6.35;100.00;100305.53;4976964;28;20069;-66
2021/11/13 07:15:55;;;;;;;1.98;1.10;;;;;;;6.53;100.00;100322.31;4951930;28;20128;-65
2021/11/13 07:18:40;;;;;;;2.90;1.30;;;;;;;6.54;100.00;100333.72;4954811;28;20049;-64
2021/11/13 07:21:24;;;;;;;4.93;1.10;;;;;;;6.64;100.00;100339.03;4970545;28;20049;-65
2021/11/13 07:24:10;;;;;;;2.38;1.52;;;;;;;6.84;100.00;100344.44;4961855;28;20132;-64
2021/11/13 07:26:55;;;;;;;2.78;1.10;;;;;;;6.78;100.00;100339.09;4959895;28;20133;-68
2021/11/13 07:29:47;;;;;;;2.00;1.30;;;;;;;6.68;100.00;100335.56;4953330;28;20120;-69
2021/11/13 07:32:32;;;;;;;1.95;1.13;;;;;;;6.87;100.00;100337.41;4958712;28;20105;-65
2021/11/13 07:35:18;;;;;;;3.85;1.30;;;;;;;6.87;100.00;100347.03;4955195;28;20057;-67
2021/11/13 07:38:04;;;;;;;1.50;1.20;;;;;;;6.84;100.00;100353.19;4968225;28;20054;-65
2021/11/13 07:40:48;;;;;;;2.25;1.27;;;;;;;6.86;100.00;100358.47;4950850;28;20074;-65
2021/11/13 07:43:34;;;;;;;2.40;1.30;;;;;;;6.87;100.00;100345.31;4949771;28;20403;-69
2021/11/13 07:46:19;;;;;;;2.30;1.10;;;;;;;6.87;100.00;100357.59;4937603;28;20105;-65
2021/11/13 07:49:04;;;;;;;2.28;1.27;;;;;;;6.82;100.00;100364.59;4951790;28;20419;-64
2021/11/13 07:51:49;;;;;;;2.67;1.45;;;;;;;6.93;100.00;100362.91;4948936;28;20065;-66
2021/11/13 07:54:36;;;;;;;3.38;1.80;;;;;;;6.91;100.00;100376.06;4958810;28;20053;-66
2021/11/13 07:57:20;;;;;;;5.13;1.58;;;;;;;7.04;100.00;100383.16;4961984;28;20054;-64
2021/11/13 08:00:07;;;;;;;3.33;1.55;;;;;;;6.99;100.00;100384.00;4955890;28;20057;-66
2021/11/13 08:02:58;;;;;;;3.30;1.60;;;;;;;6.97;100.00;100388.41;4956551;28;20049;-65
2021/11/13 08:05:42;;;;;;;3.43;1.13;;;;;;;7.07;100.00;100374.38;4965310;28;20073;-67
2021/11/13 08:08:28;;;;;;;3.47;1.25;;;;;;;6.99;100.00;100399.81;4970794;28;20296;-65
2021/11/13 08:11:12;;;;;;;1.40;1.05;;;;;;;7.02;100.00;100381.38;4973730;28;20545;-68
2021/11/13 08:13:57;;;;;;;1.30;1.00;;;;;;;6.90;100.00;100397.16;4962287;28;20049;-68
2021/11/13 08:16:42;;;;;;;;;;;;;;;7.01;100.00;100400.72;4970525;28;20069;-70
2021/11/13 08:19:28;;;;;;;5.03;1.13;;;;;;;7.06;100.00;100420.06;4944511;28;20150;-66
2021/11/13 08:22:13;;;;;;;4.10;1.30;;;;;;;7.20;100.00;100408.69;4968026;28;20101;-70
2021/11/13 08:24:58;;;;;;;1.65;1.17;;;;;;;7.46;100.00;100419.34;4959746;28;20160;-68
2021/11/13 08:27:44;;;;;;;1.98;0.90;;;;;;;7.34;100.00;100409.63;4960061;28;20092;-67
2021/11/13 08:30:30;;;;;;;2.78;1.30;;;;;;;7.44;100.00;100421.09;4976503;28;20058;-67
2021/11/13 08:33:16;;;;;;;2.72;1.27;;;;;;;7.37;100.00;100430.75;4964248;28;20061;-65
2021/11/13 08:36:01;;;;;;;3.40;1.27;;;;;;;7.50;100.00;100423.75;4958038;28;20242;-67
2021/11/13 08:38:45;;;;;;;1.77;1.08;;;;;;;7.29;100.00;100428.97;4971804;28;20089;-67
2021/11/13 08:41:30;;;;;;;3.13;1.33;;;;;;;7.31;100.00;100428.09;4972537;28;20427;-64
2021/11/13 08:44:15;;;;;;;1.92;1.10;;;;;;;7.42;100.00;100438.66;4969827;28;20173;-63
2021/11/13 08:47:01;;;;;;;2.55;1.10;;;;;;;7.74;100.00;100439.63;4979704;28;20053;-67
2021/11/13 08:49:49;;;;;;;2.15;1.30;;;;;;;7.63;100.00;100444.88;4925710;29;20058;-71
2021/11/13 08:52:34;;;;;;;1.58;1.27;;;;;;;7.55;100.00;100446.63;4954113;28;20102;-61
2021/11/13 08:55:21;;;;;;;1.35;1.00;;;;;;;7.55;100.00;100435.19;4959263;28;20053;-68
2021/11/13 08:58:09;;;;;;;1.50;1.10;;;;;;;7.61;100.00;100449.28;4967104;28;20116;-66
2021/11/13 09:00:58;;;;;;;2.55;1.55;;;;;;;7.61;100.00;100461.59;4958108;28;20064;-66
2021/11/13 09:03:43;;;;;;;2.75;1.58;;;;;;;7.74;100.00;100461.63;4971795;28;20057;-68
2021/11/13 09:06:30;;;;;;;3.72;1.90;;;;;;;7.90;100.00;100476.63;4972373;28;20426;-66
2021/11/13 09:09:15;;;;;;;3.45;2.03;;;;;;;7.79;100.00;100466.94;4968499;28;20058;-65
2021/11/13 09:12:03;;;;;;;3.90;2.05;;;;;;;7.79;100.00;100475.72;4950244;28;20178;-65
2021/11/13 09:14:54;;;;;;;6.85;2.47;;;;;;;8.14;100.00;100471.38;4956805;28;20104;-66
2021/11/13 09:17:41;;;;;;;6.65;2.78;;;;;;;8.15;100.00;100486.34;4958130;28;20089;-67
2021/11/13 09:20:31;;;;;;;5.30;2.03;;;;;;;8.14;100.00;100491.63;4959044;28;20054;-64
2021/11/13 09:23:16;;;;;;;4.80;1.63;;;;;;;7.96;100.00;100497.75;4968451;28;20185;-63
2021/11/13 09:26:02;;;;;;;5.32;2.22;;;;;;;7.89;100.00;100493.38;4973787;28;20560;-63
2021/11/13 09:28:47;;;;;;;4.80;2.45;;;;;;;7.86;100.00;100493.34;4962547;28;20053;-65
2021/11/13 09:31:33;;;;;;;2.42;1.60;;;;;;;7.99;100.00;100504.81;4971979;28;20140;-72
2021/11/13 09:34:20;;;;;;;3.65;1.55;;;;;;;8.09;100.00;100501.31;4974398;28;20145;-64
2021/11/13 09:37:05;;;;;;;3.22;1.35;;;;;;;8.05;100.00;100505.72;4960525;28;20190;-66
2021/11/13 09:39:50;;;;;;;3.80;1.45;;;;;;;7.88;100.00;100503.91;4959333;28;20046;-67
2021/11/13 09:42:34;;;;;;;4.47;1.63;;;;;;;7.74;100.00;100503.88;4962716;28;20770;-67
2021/11/13 09:45:20;;;;;;;2.95;1.60;;;;;;;8.15;100.00;100510.13;4961002;28;20089;-65
2021/11/13 09:48:05;;;;;;;2.90;1.50;;;;;;;8.33;100.00;100504.91;4961848;28;20225;-65
2021/11/13 09:50:52;;;;;;;2.22;1.40;;;;;;;8.41;100.00;100510.19;4970032;28;20054;-69
2021/11/13 09:53:38;;;;;;;2.67;1.50;;;;;;;8.46;100.00;100511.94;4978015;28;20120;-64
2021/11/13 09:56:23;;;;;;;3.22;1.58;;;;;;;8.72;100.00;100517.22;4967677;28;20058;-65
2021/11/13 09:59:08;;;;;;;3.20;1.08;;;;;;;8.56;100.00;100521.66;4958797;28;20058;-64
2021/11/13 10:01:53;;;;;;;2.20;0.90;;;;;;;8.17;100.00;100528.63;4966161;28;20639;-68
2021/11/13 10:04:38;;;;;;;2.25;1.10;;;;;;;8.04;100.00;100540.91;4970677;28;20415;-73
2021/11/13 10:07:23;;;;;;;1.92;1.30;;;;;;;8.10;100.00;100533.00;4932487;28;20099;-64
2021/11/13 10:10:10;;;;;;;4.38;1.40;;;;;;;7.92;100.00;100548.78;4964340;28;20494;-63
2021/11/13 10:12:55;;;;;;;2.88;1.25;;;;;;;7.83;100.00;100563.75;4970516;28;20050;-66
2021/11/13 10:15:40;;;;;;;4.13;1.73;;;;;;;8.00;100.00;100557.63;4964571;28;20114;-64
2021/11/13 10:18:30;;;;;;;5.13;2.47;;;;;;;8.14;100.00;100569.13;4959650;28;20049;-65
2021/11/13 10:21:19;;;;;;;4.40;2.40;;;;;;;8.18;100.00;100583.19;4957332;28;20466;-66
2021/11/13 10:24:09;;;;;;;4.55;2.38;;;;;;;8.30;100.00;100572.69;4959447;28;20062;-65
2021/11/13 10:27:00;;;;;;;5.82;2.13;;;;;;;8.16;100.00;100588.47;4947100;28;20098;-65
2021/11/13 10:29:47;;;;;;;3.08;1.83;;;;;;;8.19;100.00;100585.84;4947384;28;20166;-67
2021/11/13 10:32:32;;;;;;;5.13;2.55;;;;;;;8.11;100.00;100590.22;4948078;28;20080;-73
2021/11/13 10:35:16;;;;;;;3.58;2.00;;;;;;;8.22;100.00;100591.19;4964912;28;20057;-69
2021/11/13 10:38:15;;;;;;;4.25;2.05;;;;;;;8.44;100.00;100603.56;4958848;28;20050;-68
2021/11/13 10:41:08;;;;;;;3.92;2.20;;;;;;;8.45;100.00;100607.09;4962130;28;20104;-67
2021/11/13 10:43:53;;;;;;;3.53;2.20;;;;;;;8.41;100.00;100615.88;4979698;28;20053;-67
2021/11/13 10:46:43;;;;;;;2.70;2.00;;;;;;;8.35;100.00;100622.03;4959190;28;20141;-67
2021/11/13 10:49:29;;;;;;;3.90;2.28;;;;;;;8.46;100.00;100619.41;4970888;28;20062;-68
2021/11/13 10:52:15;;;;;;;4.13;2.40;;;;;;;8.85;100.00;100628.28;4962186;28;20141;-69
2021/11/13 10:55:00;;;;;;;4.70;2.55;;;;;;;8.83;100.00;100635.31;4970851;28;20113;-67
2021/11/13 10:57:45;;;;;;;6.38;2.80;;;;;;;8.85;100.00;100638.88;4974783;28;20534;-66
2021/11/13 11:00:38;;;;;;;4.43;2.92;;;;;;;8.82;100.00;100643.25;4958078;28;20129;-65
2021/11/13 11:03:34;;;;;;;5.10;3.10;;;;;;;8.71;100.00;100639.75;4971483;28;20049;-67
2021/11/13 11:06:38;;;;;;;4.50;3.30;;;;;;;8.64;100.00;100646.78;4973059;28;20085;-71
2021/11/13 11:09:27;;;;;;;7.97;3.00;;;;;;;9.69;100.00;100650.25;4967821;28;20074;-69
2021/11/13 11:12:18;;;;;;;5.43;3.20;;;;;;;9.97;100.00;100647.50;4953925;28;20166;-69
2021/11/13 11:15:16;;;;;;;6.72;4.00;;;;;;;9.92;100.00;100637.84;4959075;28;20576;-68
2021/11/13 11:18:03;;;;;;;7.50;4.30;;;;;;;9.64;100.00;100649.41;4962048;28;20060;-67
2021/11/13 11:20:48;;;;;;;5.32;3.55;;;;;;;10.64;100.00;100643.66;4944060;28;20052;-64
2021/11/13 11:23:33;;;;;;;5.45;3.00;;;;;;;10.68;100.00;100656.00;4958146;28;20073;-66
2021/11/13 11:26:18;;;;;;;4.80;3.13;;;;;;;10.24;100.00;100655.38;4960696;28;20061;-68
2021/11/13 11:29:04;;;;;;;5.53;3.00;;;;;;;10.09;100.00;100668.69;4972393;28;20054;-66
2021/11/13 11:31:53;;;;;;;5.78;3.10;;;;;;;9.91;100.00;100665.19;4951290;28;20070;-64
2021/11/13 11:34:41;;;;;;;3.78;2.13;;;;;;;9.44;100.00;100671.50;4952899;28;20583;-68
2021/11/13 11:37:32;;;;;;;3.13;2.30;;;;;;;9.18;100.00;100680.34;4953132;28;20069;-66
2021/11/13 11:40:25;;;;;;;3.65;2.13;;;;;;;8.79;100.00;100665.28;4953165;28;20102;-68
2021/11/13 11:43:13;;;;;;;4.95;2.05;;;;;;;8.58;100.00;100667.00;4949628;28;20097;-65
2021/11/13 11:45:58;;;;;;;3.45;1.50;;;;;;;8.30;100.00;100678.38;4956005;28;20053;-66
2021/11/13 11:48:45;;;;;;;4.07;1.40;;;;;;;8.27;100.00;100678.41;4955891;28;20595;-67
2021/11/13 11:51:31;;;;;;;6.20;1.40;;;;;;;8.09;100.00;100689.72;4915631;29;20046;-64
2021/11/13 11:54:17;;;;;;;2.67;1.40;;;;;;;7.94;100.00;100688.75;4950145;28;20106;-64
2021/11/13 11:57:03;;;;;;;3.63;1.40;;;;;;;7.71;100.00;100685.13;4952241;28;20054;-64
2021/11/13 11:59:49;;;;;;;3.35;1.70;;;;;;;7.63;100.00;100685.06;4952706;28;20427;-65
2021/11/13 12:02:40;;;;;;;2.47;1.58;;;;;;;7.60;100.00;100690.31;4956739;28;20050;-66
2021/11/13 12:05:31;;;;;;;2.30;1.25;;;;;;;7.74;100.00;100693.03;4956955;28;20070;-73
2021/11/13 12:08:21;;;;;;;4.43;2.10;;;;;;;7.69;100.00;100689.50;4949679;28;20054;-64
2021/11/13 12:11:36;;;;;;;2.95;1.60;;;;;;;7.87;100.00;100697.53;4959026;28;20114;-63
2021/11/13 12:14:37;;;;;;;3.77;2.00;;;;;;;7.64;100.00;100696.50;4925929;29;20106;-62
2021/11/13 12:17:24;;;;;;;3.50;1.92;;;;;;;7.64;100.00;100701.78;4928384;29;20291;-66
2021/11/13 12:20:14;;;;;;;3.58;2.08;;;;;;;7.55;100.00;100699.97;4928826;29;20086;-65
2021/11/13 12:23:14;;;;;;;2.97;1.60;;;;;;;7.47;100.00;100709.59;4921235;29;20631;-69
2021/11/13 12:26:32;;;;;;;3.92;1.70;;;;;;;7.43;100.00;100715.72;4926579;29;20054;-67
2021/11/13 12:29:18;;;;;;;3.60;1.83;;;;;;;7.28;100.00;100718.22;4911672;29;20087;-65
2021/11/13 12:32:08;;;;;;;4.85;1.90;;;;;;;7.44;100.00;100719.25;4952070;28;20130;-66
2021/11/13 12:34:54;;;;;;;2.63;1.65;;;;;;;7.45;100.00;100721.91;4953347;28;20464;-64
2021/11/13 12:37:39;;;;;;;2.92;1.65;;;;;;;7.25;100.00;100727.88;4947226;28;20130;-63
2021/11/13 12:40:39;;;;;;;2.90;1.80;;;;;;;7.24;100.00;100729.63;4956774;28;20074;-65
2021/11/13 12:43:24;;;;;;;2.72;1.30;;;;;;;7.16;100.00;100746.28;4945043;28;20051;-66
2021/11/13 12:46:27;;;;;;;3.92;1.42;;;;;;;7.27;100.00;100745.47;4943658;28;20554;-71
2021/11/13 12:52:10;;;;;;;4.00;1.40;;;;;;;7.10;100.00;100755.00;4939351;28;20483;-62
2021/11/13 12:55:13;;;;;;;6.13;1.35;;;;;;;7.00;100.00;100753.13;4943471;29;20054;-73
2021/11/13 12:58:08;;;;;;;3.97;1.35;;;;;;;6.91;100.00;100762.69;4941384;28;20174;-66
2021/11/13 13:00:54;;;;;;;1.70;1.20;;;;;;;6.81;100.00;100763.47;4946093;29;20570;-64
2021/11/13 13:03:42;;;;;;;3.30;1.83;;;;;;;6.94;100.00;100770.66;4960604;28;20053;-65
2021/11/13 13:06:29;;;;;;;3.35;1.40;;;;;;;6.81;100.00;100782.78;4931842;29;20464;-71